Terminal Aerodrome Forecast
Issued by NWS Mt. Holly, NJ

Home | Current Version | Previous Version | Text Only | Print | Product List | Glossary On
Versions: 1 2 3 4 5 6 7 8 9 10 11 12 13 14 15 16 17 18 19 20 21 22 23 24 25
000
FTUS41 KPHI 301120
TAFILG
TAF
KILG 301120Z 3012/0112 05007KT P6SM OVC025
      TEMPO 3012/3014 BKN035
     FM301800 13007KT P6SM SCT040 BKN200
     FM010400 11005KT P6SM -RA SCT025 BKN040
     FM010700 09009KT 5SM -RA SCT008 BKN015=

USA.gov is the U.S. government's official web portal to all federal, state and local government web resources and services.